sensor_id;sensor_type;location;lat;lon;timestamp;pressure;altitude;pressure_sealevel;temperature;humidity
72486;BME280;60509;47.308;-122.428;2022-11-15T00:00:56;77340.62;;;13.44;66.55
72486;BME280;60509;47.308;-122.428;2022-11-15T00:03:22;77340.62;;;14.10;66.55
72486;BME280;60509;47.308;-122.428;2022-11-15T00:05:46;77340.62;;;13.66;66.55
72486;BME280;60509;47.308;-122.428;2022-11-15T00:08:11;77340.62;;;13.64;66.55
72486;BME280;60509;47.308;-122.428;2022-11-15T00:10:36;77340.62;;;14.34;66.55
72486;BME280;60509;47.308;-122.428;2022-11-15T00:13:05;77340.62;;;13.88;66.55
72486;BME280;60509;47.308;-122.428;2022-11-15T00:15:26;77340.62;;;14.34;66.55
72486;BME280;60509;47.308;-122.428;2022-11-15T00:17:52;77340.62;;;14.44;66.55
72486;BME280;60509;47.308;-122.428;2022-11-15T00:20:17;77340.62;;;14.22;66.55
72486;BME280;60509;47.308;-122.428;2022-11-15T00:22:42;77340.62;;;14.94;66.55
72486;BME280;60509;47.308;-122.428;2022-11-15T00:25:08;77340.62;;;15.24;66.55
72486;BME280;60509;47.308;-122.428;2022-11-15T00:27:33;77340.62;;;15.34;66.55
72486;BME280;60509;47.308;-122.428;2022-11-15T00:29:58;77340.62;;;15.34;66.55
72486;BME280;60509;47.308;-122.428;2022-11-15T00:32:24;77340.62;;;16.02;66.55
72486;BME280;60509;47.308;-122.428;2022-11-15T00:34:49;77340.62;;;15.46;66.55
72486;BME280;60509;47.308;-122.428;2022-11-15T00:37:15;77340.62;;;15.34;66.55
72486;BME280;60509;47.308;-122.428;2022-11-15T00:39:40;77340.62;;;15.80;66.55
72486;BME280;60509;47.308;-122.428;2022-11-15T00:42:05;77340.62;;;16.44;66.55
72486;BME280;60509;47.308;-122.428;2022-11-15T00:44:31;77340.62;;;16.74;66.55
72486;BME280;60509;47.308;-122.428;2022-11-15T00:46:56;77340.62;;;16.44;66.55
72486;BME280;60509;47.308;-122.428;2022-11-15T00:49:22;77340.62;;;16.44;66.55
72486;BME280;60509;47.308;-122.428;2022-11-15T00:51:47;77340.62;;;16.64;66.55
72486;BME280;60509;47.308;-122.428;2022-11-15T00:54:12;77340.62;;;16.76;66.55
72486;BME280;60509;47.308;-122.428;2022-11-15T00:56:38;77340.62;;;16.84;66.55
72486;BME280;60509;47.308;-122.428;2022-11-15T00:59:03;77340.62;;;16.96;66.55
72486;BME280;60509;47.308;-122.428;2022-11-15T01:01:29;77340.62;;;16.94;66.55
72486;BME280;60509;47.308;-122.428;2022-11-15T01:03:54;77340.62;;;16.86;66.55
72486;BME280;60509;47.308;-122.428;2022-11-15T01:06:19;77340.62;;;16.54;66.55
72486;BME280;60509;47.308;-122.428;2022-11-15T01:08:45;77340.62;;;16.34;66.55
72486;BME280;60509;47.308;-122.428;2022-11-15T01:11:12;77340.62;;;16.44;66.55
72486;BME280;60509;47.308;-122.428;2022-11-15T01:13:37;77340.62;;;16.02;66.55
72486;BME280;60509;47.308;-122.428;2022-11-15T01:16:08;77340.62;;;16.76;66.55
72486;BME280;60509;47.308;-122.428;2022-11-15T01:18:27;77340.62;;;16.44;66.55
72486;BME280;60509;47.308;-122.428;2022-11-15T01:20:52;77340.62;;;16.74;66.55
72486;BME280;60509;47.308;-122.428;2022-11-15T01:23:18;77340.62;;;16.44;66.55
72486;BME280;60509;47.308;-122.428;2022-11-15T01:25:43;77340.62;;;16.86;66.55
72486;BME280;60509;47.308;-122.428;2022-11-15T01:28:08;77340.62;;;16.84;66.55
72486;BME280;60509;47.308;-122.428;2022-11-15T01:30:35;77340.62;;;16.74;66.55
72486;BME280;60509;47.308;-122.428;2022-11-15T01:32:59;77340.62;;;16.44;66.55
72486;BME280;60509;47.308;-122.428;2022-11-15T01:35:25;77340.62;;;16.96;66.55
72486;BME280;60509;47.308;-122.428;2022-11-15T01:37:50;77340.62;;;17.30;66.55
72486;BME280;60509;47.308;-122.428;2022-11-15T01:40:16;77340.62;;;17.30;66.55
72486;BME280;60509;47.308;-122.428;2022-11-15T01:42:41;77340.62;;;17.06;66.55
72486;BME280;60509;47.308;-122.428;2022-11-15T01:45:13;77340.62;;;17.54;66.55
72486;BME280;60509;47.308;-122.428;2022-11-15T01:47:37;77340.62;;;17.18;66.55
72486;BME280;60509;47.308;-122.428;2022-11-15T01:50:00;77340.62;;;17.30;66.55
72486;BME280;60509;47.308;-122.428;2022-11-15T01:52:26;77340.62;;;17.54;66.55
72486;BME280;60509;47.308;-122.428;2022-11-15T01:54:53;77340.62;;;17.76;66.55
72486;BME280;60509;47.308;-122.428;2022-11-15T01:57:14;77340.62;;;17.54;66.55
72486;BME280;60509;47.308;-122.428;2022-11-15T01:59:42;77340.62;;;17.42;66.55
72486;BME280;60509;47.308;-122.428;2022-11-15T02:02:05;77340.62;;;17.06;66.55
72486;BME280;60509;47.308;-122.428;2022-11-15T02:04:34;77340.62;;;17.06;66.55
72486;BME280;60509;47.308;-122.428;2022-11-15T02:06:56;77340.62;;;16.94;66.55
72486;BME280;60509;47.308;-122.428;2022-11-15T02:09:21;77340.62;;;16.84;66.55
72486;BME280;60509;47.308;-122.428;2022-11-15T02:11:48;77340.62;;;16.76;66.55
72486;BME280;60509;47.308;-122.428;2022-11-15T02:14:14;77340.62;;;16.76;66.55
72486;BME280;60509;47.308;-122.428;2022-11-15T02:16:43;77340.62;;;16.54;66.55
72486;BME280;60509;47.308;-122.428;2022-11-15T02:19:15;77340.62;;;16.96;66.55
72486;BME280;60509;47.308;-122.428;2022-11-15T02:21:32;77340.62;;;16.84;66.55
72486;BME280;60509;47.308;-122.428;2022-11-15T02:24:14;77340.62;;;17.18;66.55
72486;BME280;60509;47.308;-122.428;2022-11-15T02:27:06;77340.62;;;17.18;66.55
72486;BME280;60509;47.308;-122.428;2022-11-15T02:28:52;77340.62;;;16.86;66.55
72486;BME280;60509;47.308;-122.428;2022-11-15T02:31:15;77340.62;;;16.74;66.55
72486;BME280;60509;47.308;-122.428;2022-11-15T02:33:41;77340.62;;;16.84;66.55
72486;BME280;60509;47.308;-122.428;2022-11-15T02:36:05;77340.62;;;16.84;66.55
72486;BME280;60509;47.308;-122.428;2022-11-15T02:38:32;77340.62;;;16.34;66.55
72486;BME280;60509;47.308;-122.428;2022-11-15T02:40:56;77340.62;;;16.94;66.55
72486;BME280;60509;47.308;-122.428;2022-11-15T02:43:24;77340.62;;;17.30;66.55
72486;BME280;60509;47.308;-122.428;2022-11-15T02:45:48;77340.62;;;16.94;66.55
72486;BME280;60509;47.308;-122.428;2022-11-15T02:48:10;77340.62;;;17.42;66.55
72486;BME280;60509;47.308;-122.428;2022-11-15T02:50:35;77340.62;;;17.30;66.55
72486;BME280;60509;47.308;-122.428;2022-11-15T02:53:00;77340.62;;;17.42;66.55
72486;BME280;60509;47.308;-122.428;2022-11-15T02:55:29;77340.62;;;17.06;66.55
72486;BME280;60509;47.308;-122.428;2022-11-15T02:57:55;77340.62;;;16.74;66.55
72486;BME280;60509;47.308;-122.428;2022-11-15T03:00:17;77340.62;;;16.74;66.55
72486;BME280;60509;47.308;-122.428;2022-11-15T03:02:58;77340.62;;;16.76;66.55
72486;BME280;60509;47.308;-122.428;2022-11-15T03:05:15;77340.62;;;16.96;66.55
72486;BME280;60509;47.308;-122.428;2022-11-15T03:07:37;77340.62;;;17.30;66.55
72486;BME280;60509;47.308;-122.428;2022-11-15T03:10:05;77340.62;;;16.94;66.55
72486;BME280;60509;47.308;-122.428;2022-11-15T03:12:29;77340.62;;;17.30;66.55
72486;BME280;60509;47.308;-122.428;2022-11-15T03:14:56;77340.62;;;17.18;66.55
72486;BME280;60509;47.308;-122.428;2022-11-15T03:17:18;77340.62;;;17.20;66.55
72486;BME280;60509;47.308;-122.428;2022-11-15T03:19:44;77340.62;;;17.30;66.55
72486;BME280;60509;47.308;-122.428;2022-11-15T03:22:09;77340.62;;;17.54;66.55
72486;BME280;60509;47.308;-122.428;2022-11-15T03:24:36;77340.62;;;17.84;66.55
72486;BME280;60509;47.308;-122.428;2022-11-15T03:27:00;77340.62;;;17.54;66.55
72486;BME280;60509;47.308;-122.428;2022-11-15T03:29:26;77340.62;;;17.54;66.55
72486;BME280;60509;47.308;-122.428;2022-11-15T03:31:53;77340.62;;;17.30;66.55
72486;BME280;60509;47.308;-122.428;2022-11-15T03:34:19;77340.62;;;17.86;66.55
72486;BME280;60509;47.308;-122.428;2022-11-15T03:36:40;77340.62;;;17.54;66.55
72486;BME280;60509;47.308;-122.428;2022-11-15T03:39:07;77340.62;;;17.20;66.55
72486;BME280;60509;47.308;-122.428;2022-11-15T03:41:35;77340.62;;;16.32;66.55
72486;BME280;60509;47.308;-122.428;2022-11-15T03:43:59;77340.62;;;16.94;66.55
72486;BME280;60509;47.308;-122.428;2022-11-15T03:46:25;77340.62;;;16.98;66.55
72486;BME280;60509;47.308;-122.428;2022-11-15T03:48:52;77340.62;;;16.64;66.55
72486;BME280;60509;47.308;-122.428;2022-11-15T03:51:13;77340.62;;;17.30;66.55
72486;BME280;60509;47.308;-122.428;2022-11-15T03:53:38;77340.62;;;17.42;66.55
72486;BME280;60509;47.308;-122.428;2022-11-15T03:56:04;77340.62;;;17.30;66.55
72486;BME280;60509;47.308;-122.428;2022-11-15T03:58:29;77340.62;;;17.54;66.55
72486;BME280;60509;47.308;-122.428;2022-11-15T04:00:55;77340.62;;;16.84;66.55
72486;BME280;60509;47.308;-122.428;2022-11-15T04:03:20;77340.62;;;16.64;66.55
72486;BME280;60509;47.308;-122.428;2022-11-15T04:05:46;77340.62;;;17.18;66.55
72486;BME280;60509;47.308;-122.428;2022-11-15T04:08:11;77340.62;;;16.96;66.55
72486;BME280;60509;47.308;-122.428;2022-11-15T04:10:37;77340.62;;;17.30;66.55
72486;BME280;60509;47.308;-122.428;2022-11-15T04:13:03;77340.62;;;16.74;66.55
72486;BME280;60509;47.308;-122.428;2022-11-15T04:15:28;77340.62;;;16.84;66.55
72486;BME280;60509;47.308;-122.428;2022-11-15T04:17:59;77340.62;;;17.30;66.55
72486;BME280;60509;47.308;-122.428;2022-11-15T04:20:21;77340.62;;;16.96;66.55
72486;BME280;60509;47.308;-122.428;2022-11-15T04:22:44;77340.62;;;17.18;66.55
72486;BME280;60509;47.308;-122.428;2022-11-15T04:25:10;77340.62;;;17.54;66.55
72486;BME280;60509;47.308;-122.428;2022-11-15T04:27:35;77340.62;;;17.32;66.55
72486;BME280;60509;47.308;-122.428;2022-11-15T04:30:01;77340.62;;;16.96;66.55
72486;BME280;60509;47.308;-122.428;2022-11-15T04:32:26;77340.62;;;16.84;66.55
72486;BME280;60509;47.308;-122.428;2022-11-15T04:34:52;77340.62;;;16.54;66.55
72486;BME280;60509;47.308;-122.428;2022-11-15T04:37:17;77340.62;;;17.08;66.55
72486;BME280;60509;47.308;-122.428;2022-11-15T04:39:43;77340.62;;;17.18;66.55
72486;BME280;60509;47.308;-122.428;2022-11-15T04:42:09;77340.62;;;16.84;66.55
72486;BME280;60509;47.308;-122.428;2022-11-15T04:44:34;77340.62;;;17.42;66.55
72486;BME280;60509;47.308;-122.428;2022-11-15T04:46:59;77340.62;;;16.96;66.55
72486;BME280;60509;47.308;-122.428;2022-11-15T04:49:25;77340.62;;;17.42;66.55
72486;BME280;60509;47.308;-122.428;2022-11-15T04:51:50;77340.62;;;17.30;66.55
72486;BME280;60509;47.308;-122.428;2022-11-15T04:54:16;77340.62;;;17.18;66.55
72486;BME280;60509;47.308;-122.428;2022-11-15T04:56:41;77340.62;;;17.54;66.55
72486;BME280;60509;47.308;-122.428;2022-11-15T04:59:07;77340.62;;;17.30;66.55
72486;BME280;60509;47.308;-122.428;2022-11-15T05:01:32;77340.62;;;17.54;66.55
72486;BME280;60509;47.308;-122.428;2022-11-15T05:03:58;77340.62;;;17.86;66.55
72486;BME280;60509;47.308;-122.428;2022-11-15T05:06:23;77340.62;;;17.64;66.55
72486;BME280;60509;47.308;-122.428;2022-11-15T05:08:49;77340.62;;;17.54;66.55
72486;BME280;60509;47.308;-122.428;2022-11-15T05:11:14;77340.62;;;17.54;66.55
72486;BME280;60509;47.308;-122.428;2022-11-15T05:13:39;77340.62;;;16.86;66.55
72486;BME280;60509;47.308;-122.428;2022-11-15T05:16:05;77340.62;;;16.74;66.55
72486;BME280;60509;47.308;-122.428;2022-11-15T05:18:30;77340.62;;;16.54;66.55
72486;BME280;60509;47.308;-122.428;2022-11-15T05:20:56;77340.62;;;16.94;66.55
72486;BME280;60509;47.308;-122.428;2022-11-15T05:23:21;77340.62;;;16.84;66.55
72486;BME280;60509;47.308;-122.428;2022-11-15T05:25:47;77340.62;;;16.64;66.55
72486;BME280;60509;47.308;-122.428;2022-11-15T05:28:13;77340.62;;;16.54;66.55
72486;BME280;60509;47.308;-122.428;2022-11-15T05:30:38;77340.62;;;16.64;66.55
72486;BME280;60509;47.308;-122.428;2022-11-15T05:33:04;77340.62;;;16.44;66.55
72486;BME280;60509;47.308;-122.428;2022-11-15T05:35:33;77340.62;;;16.54;66.55
72486;BME280;60509;47.308;-122.428;2022-11-15T05:37:54;77340.62;;;16.54;66.55
72486;BME280;60509;47.308;-122.428;2022-11-15T05:40:20;77340.62;;;16.84;66.55
72486;BME280;60509;47.308;-122.428;2022-11-15T05:42:46;77340.62;;;17.30;66.55
72486;BME280;60509;47.308;-122.428;2022-11-15T05:45:11;77340.62;;;17.20;66.55
72486;BME280;60509;47.308;-122.428;2022-11-15T05:47:39;77340.62;;;17.18;66.55
72486;BME280;60509;47.308;-122.428;2022-11-15T05:50:02;77340.62;;;17.42;66.55
72486;BME280;60509;47.308;-122.428;2022-11-15T05:52:31;77340.62;;;17.54;66.55
72486;BME280;60509;47.308;-122.428;2022-11-15T05:54:53;77340.62;;;17.64;66.55
72486;BME280;60509;47.308;-122.428;2022-11-15T05:57:19;77340.62;;;17.40;66.55
72486;BME280;60509;47.308;-122.428;2022-11-15T05:59:44;77340.62;;;17.30;66.55
72486;BME280;60509;47.308;-122.428;2022-11-15T06:02:10;77340.62;;;17.54;66.55
72486;BME280;60509;47.308;-122.428;2022-11-15T06:04:35;77340.62;;;18.04;66.55
72486;BME280;60509;47.308;-122.428;2022-11-15T06:07:01;77340.62;;;17.98;66.55
72486;BME280;60509;47.308;-122.428;2022-11-15T06:09:26;77340.62;;;17.54;66.55
72486;BME280;60509;47.308;-122.428;2022-11-15T06:11:52;77340.62;;;17.42;66.55
72486;BME280;60509;47.308;-122.428;2022-11-15T06:14:18;77340.62;;;17.74;66.55
72486;BME280;60509;47.308;-122.428;2022-11-15T06:16:44;77340.62;;;18.18;66.55
72486;BME280;60509;47.308;-122.428;2022-11-15T06:19:09;77340.62;;;18.30;66.55
72486;BME280;60509;47.308;-122.428;2022-11-15T06:21:34;77340.62;;;18.40;66.55
72486;BME280;60509;47.308;-122.428;2022-11-15T06:24:00;77340.62;;;18.20;66.55
72486;BME280;60509;47.308;-122.428;2022-11-15T06:26:25;77340.62;;;17.54;66.55
72486;BME280;60509;47.308;-122.428;2022-11-15T06:28:51;77340.62;;;17.64;66.55
72486;BME280;60509;47.308;-122.428;2022-11-15T06:31:16;77340.62;;;17.64;66.55
72486;BME280;60509;47.308;-122.428;2022-11-15T06:33:42;77340.62;;;17.54;66.55
72486;BME280;60509;47.308;-122.428;2022-11-15T06:36:09;77340.62;;;17.42;66.55
72486;BME280;60509;47.308;-122.428;2022-11-15T06:38:33;77340.62;;;17.64;66.55
72486;BME280;60509;47.308;-122.428;2022-11-15T06:41:02;77340.62;;;17.86;66.55
72486;BME280;60509;47.308;-122.428;2022-11-15T06:43:24;77340.62;;;17.64;66.55
72486;BME280;60509;47.308;-122.428;2022-11-15T06:45:50;77340.62;;;18.64;66.55
72486;BME280;60509;47.308;-122.428;2022-11-15T06:48:15;77340.62;;;18.52;66.55
72486;BME280;60509;47.308;-122.428;2022-11-15T06:50:41;77340.62;;;18.62;66.55
72486;BME280;60509;47.308;-122.428;2022-11-15T06:53:06;77340.62;;;18.08;66.55
72486;BME280;60509;47.308;-122.428;2022-11-15T06:55:32;77340.62;;;18.18;66.55
72486;BME280;60509;47.308;-122.428;2022-11-15T06:57:57;77340.62;;;17.96;66.55
72486;BME280;60509;47.308;-122.428;2022-11-15T07:00:23;77340.62;;;17.86;66.55
72486;BME280;60509;47.308;-122.428;2022-11-15T07:02:49;77340.62;;;17.94;66.55
72486;BME280;60509;47.308;-122.428;2022-11-15T07:05:15;77340.62;;;18.08;66.55
72486;BME280;60509;47.308;-122.428;2022-11-15T07:07:39;77340.62;;;18.18;66.55
72486;BME280;60509;47.308;-122.428;2022-11-15T07:10:06;77340.62;;;17.64;66.55
72486;BME280;60509;47.308;-122.428;2022-11-15T07:12:30;77340.62;;;17.84;66.55
72486;BME280;60509;47.308;-122.428;2022-11-15T07:14:56;77340.62;;;17.76;66.55
72486;BME280;60509;47.308;-122.428;2022-11-15T07:17:21;77340.62;;;17.30;66.55
72486;BME280;60509;47.308;-122.428;2022-11-15T07:19:47;77340.62;;;17.54;66.55
72486;BME280;60509;47.308;-122.428;2022-11-15T07:22:12;77340.62;;;17.64;66.55
72486;BME280;60509;47.308;-122.428;2022-11-15T07:24:38;77340.62;;;17.86;66.55
72486;BME280;60509;47.308;-122.428;2022-11-15T07:27:03;77340.62;;;18.52;66.55
72486;BME280;60509;47.308;-122.428;2022-11-15T07:29:29;77340.62;;;18.42;66.55
72486;BME280;60509;47.308;-122.428;2022-11-15T07:31:55;77340.62;;;18.28;66.55
72486;BME280;60509;47.308;-122.428;2022-11-15T07:34:20;77340.62;;;17.86;66.55
72486;BME280;60509;47.308;-122.428;2022-11-15T07:36:45;77340.62;;;17.98;66.55
72486;BME280;60509;47.308;-122.428;2022-11-15T07:39:11;77340.62;;;17.84;66.55
72486;BME280;60509;47.308;-122.428;2022-11-15T07:41:37;77340.62;;;18.52;66.55
72486;BME280;60509;47.308;-122.428;2022-11-15T07:44:02;77340.62;;;18.08;66.55
72486;BME280;60509;47.308;-122.428;2022-11-15T07:46:28;77340.62;;;17.64;66.55
72486;BME280;60509;47.308;-122.428;2022-11-15T07:48:53;77340.62;;;17.54;66.55
72486;BME280;60509;47.308;-122.428;2022-11-15T07:51:19;77340.62;;;17.76;66.55
72486;BME280;60509;47.308;-122.428;2022-11-15T07:53:44;77340.62;;;18.52;66.55
72486;BME280;60509;47.308;-122.428;2022-11-15T07:56:11;77340.62;;;18.52;66.55
72486;BME280;60509;47.308;-122.428;2022-11-15T07:58:36;77340.62;;;18.64;66.55
72486;BME280;60509;47.308;-122.428;2022-11-15T08:01:07;77340.62;;;18.18;66.55
72486;BME280;60509;47.308;-122.428;2022-11-15T08:03:27;77340.62;;;19.24;66.55
72486;BME280;60509;47.308;-122.428;2022-11-15T08:05:52;77340.62;;;19.34;66.55
72486;BME280;60509;47.308;-122.428;2022-11-15T08:08:18;77340.62;;;19.64;66.55
72486;BME280;60509;47.308;-122.428;2022-11-15T08:10:43;77340.62;;;19.14;66.55
72486;BME280;60509;47.308;-122.428;2022-11-15T08:13:10;77340.62;;;19.44;66.55
72486;BME280;60509;47.308;-122.428;2022-11-15T08:15:35;77340.62;;;18.84;66.55
72486;BME280;60509;47.308;-122.428;2022-11-15T08:18:02;77340.62;;;18.84;66.55
72486;BME280;60509;47.308;-122.428;2022-11-15T08:20:27;77340.62;;;18.94;66.55
72486;BME280;60509;47.308;-122.428;2022-11-15T08:22:51;77340.62;;;18.84;66.55
72486;BME280;60509;47.308;-122.428;2022-11-15T08:25:16;77340.62;;;18.84;66.55
72486;BME280;60509;47.308;-122.428;2022-11-15T08:27:42;77340.62;;;18.64;66.55
72486;BME280;60509;47.308;-122.428;2022-11-15T08:30:08;77340.62;;;18.84;66.55
72486;BME280;60509;47.308;-122.428;2022-11-15T08:32:33;77340.62;;;19.04;66.55
72486;BME280;60509;47.308;-122.428;2022-11-15T08:34:58;77340.62;;;19.24;66.55
72486;BME280;60509;47.308;-122.428;2022-11-15T08:37:24;77340.62;;;19.64;66.55
72486;BME280;60509;47.308;-122.428;2022-11-15T08:39:49;77340.62;;;18.94;66.55
72486;BME280;60509;47.308;-122.428;2022-11-15T08:42:15;77340.62;;;19.44;66.55
72486;BME280;60509;47.308;-122.428;2022-11-15T08:44:40;77340.62;;;19.54;66.55
72486;BME280;60509;47.308;-122.428;2022-11-15T08:47:07;77340.62;;;19.24;66.55
72486;BME280;60509;47.308;-122.428;2022-11-15T08:49:31;77340.62;;;18.94;66.55
72486;BME280;60509;47.308;-122.428;2022-11-15T08:51:57;77340.62;;;18.52;66.55
72486;BME280;60509;47.308;-122.428;2022-11-15T08:54:22;77340.62;;;18.64;66.55
72486;BME280;60509;47.308;-122.428;2022-11-15T08:56:48;77340.62;;;18.94;66.55
72486;BME280;60509;47.308;-122.428;2022-11-15T08:59:13;77340.62;;;19.14;66.55
72486;BME280;60509;47.308;-122.428;2022-11-15T09:01:39;77340.62;;;18.84;66.55
72486;BME280;60509;47.308;-122.428;2022-11-15T09:04:05;77340.62;;;18.40;66.55
72486;BME280;60509;47.308;-122.428;2022-11-15T09:06:30;77340.62;;;18.84;66.55
72486;BME280;60509;47.308;-122.428;2022-11-15T09:08:55;77340.62;;;19.34;66.55
72486;BME280;60509;47.308;-122.428;2022-11-15T09:11:21;77340.62;;;19.04;66.55
72486;BME280;60509;47.308;-122.428;2022-11-15T09:13:46;77340.62;;;18.52;66.55
72486;BME280;60509;47.308;-122.428;2022-11-15T09:18:27;102072.22;;;-2.38;49.03
72486;BME280;60509;47.308;-122.428;2022-11-15T09:20:55;102073.51;;;-2.36;49.85
72486;BME280;60509;47.308;-122.428;2022-11-15T09:23:18;102078.45;;;-1.95;50.76
72486;BME280;60509;47.308;-122.428;2022-11-15T09:25:43;102076.26;;;-1.95;51.32
72486;BME280;60509;47.308;-122.428;2022-11-15T09:28:09;102078.10;;;-1.90;52.38
72486;BME280;60509;47.308;-122.428;2022-11-15T09:30:34;102077.99;;;-1.40;51.68
72486;BME280;60509;47.308;-122.428;2022-11-15T09:33:07;102080.91;;;-3.27;54.57
72486;BME280;60509;47.308;-122.428;2022-11-15T09:35:25;102085.06;;;-1.39;52.76
72486;BME280;60509;47.308;-122.428;2022-11-15T09:37:51;102085.81;;;-1.10;52.72
72486;BME280;60509;47.308;-122.428;2022-11-15T09:40:18;102090.37;;;-0.81;51.98
72486;BME280;60509;47.308;-122.428;2022-11-15T09:42:55;102088.89;;;-1.38;52.04
72486;BME280;60509;47.308;-122.428;2022-11-15T09:45:17;102085.15;;;-2.99;53.43
72486;BME280;60509;47.308;-122.428;2022-11-15T09:47:46;102084.75;;;-2.41;51.85
72486;BME280;60509;47.308;-122.428;2022-11-15T09:50:00;102083.36;;;-1.53;49.92
72486;BME280;60509;47.308;-122.428;2022-11-15T09:52:25;102080.70;;;-1.36;49.92
72486;BME280;60509;47.308;-122.428;2022-11-15T09:54:51;102086.37;;;-1.76;50.03
72486;BME280;60509;47.308;-122.428;2022-11-15T09:57:20;102087.37;;;-2.05;50.52
72486;BME280;60509;47.308;-122.428;2022-11-15T09:59:51;102085.04;;;-1.92;50.25
72486;BME280;60509;47.308;-122.428;2022-11-15T10:02:21;102085.54;;;-2.17;50.30
72486;BME280;60509;47.308;-122.428;2022-11-15T10:04:32;102085.49;;;-2.68;50.99
72486;BME280;60509;47.308;-122.428;2022-11-15T10:07:04;102083.30;;;-1.27;49.16
72486;BME280;60509;47.308;-122.428;2022-11-15T10:09:27;102086.22;;;-2.17;49.88
72486;BME280;60509;47.308;-122.428;2022-11-15T10:11:49;102081.24;;;-1.45;49.40
72486;BME280;60509;47.308;-122.428;2022-11-15T10:14:16;102082.24;;;-2.97;51.18
72486;BME280;60509;47.308;-122.428;2022-11-15T10:16:55;102079.86;;;-2.44;50.04
72486;BME280;60509;47.308;-122.428;2022-11-15T10:19:10;102084.06;;;-2.65;50.08
72486;BME280;60509;47.308;-122.428;2022-11-15T10:21:38;102086.96;;;-2.27;49.62
72486;BME280;60509;47.308;-122.428;2022-11-15T10:23:57;102084.70;;;-2.59;49.67
72486;BME280;60509;47.308;-122.428;2022-11-15T10:26:24;102086.98;;;-3.14;49.93
72486;BME280;60509;47.308;-122.428;2022-11-15T10:28:48;102084.35;;;-1.34;48.21
72486;BME280;60509;47.308;-122.428;2022-11-15T10:31:23;102084.63;;;-1.26;47.53
72486;BME280;60509;47.308;-122.428;2022-11-15T10:33:39;102086.15;;;-1.88;48.02
72486;BME280;60509;47.308;-122.428;2022-11-15T10:36:36;102084.44;;;-2.32;48.63
72486;BME280;60509;47.308;-122.428;2022-11-15T10:38:30;102080.80;;;-3.02;49.32
72486;BME280;60509;47.308;-122.428;2022-11-15T10:41:07;102081.04;;;-2.45;47.91
72486;BME280;60509;47.308;-122.428;2022-11-15T10:43:21;102082.56;;;-2.50;47.58
72486;BME280;60509;47.308;-122.428;2022-11-15T10:45:47;102085.20;;;-2.87;47.46
72486;BME280;60509;47.308;-122.428;2022-11-15T10:48:27;102089.47;;;-3.59;48.49
72486;BME280;60509;47.308;-122.428;2022-11-15T10:50:39;102089.07;;;-3.87;48.12
72486;BME280;60509;47.308;-122.428;2022-11-15T10:53:03;102089.94;;;-2.96;47.28
72486;BME280;60509;47.308;-122.428;2022-11-15T10:55:31;102090.51;;;-3.41;47.31
72486;BME280;60509;47.308;-122.428;2022-11-15T10:57:56;102087.68;;;-4.13;47.38
72486;BME280;60509;47.308;-122.428;2022-11-15T11:00:38;102080.41;;;-2.92;45.70
72486;BME280;60509;47.308;-122.428;2022-11-15T11:02:56;102084.57;;;-3.40;46.48
72486;BME280;60509;47.308;-122.428;2022-11-15T11:05:33;102079.08;;;-2.27;45.05
72486;BME280;60509;47.308;-122.428;2022-11-15T11:07:36;102081.86;;;-2.66;45.69
72486;BME280;60509;47.308;-122.428;2022-11-15T11:10:05;102083.38;;;-2.97;45.98
72486;BME280;60509;47.308;-122.428;2022-11-15T11:12:30;102089.67;;;-3.67;46.90
72486;BME280;60509;47.308;-122.428;2022-11-15T11:14:53;102092.16;;;-3.27;46.68
72486;BME280;60509;47.308;-122.428;2022-11-15T11:17:26;102095.70;;;-3.11;46.17
72486;BME280;60509;47.308;-122.428;2022-11-15T11:19:57;102093.71;;;-2.46;45.58
72486;BME280;60509;47.308;-122.428;2022-11-15T11:22:17;102099.81;;;-3.89;47.27
72486;BME280;60509;47.308;-122.428;2022-11-15T11:24:43;102100.36;;;-3.14;46.52
72486;BME280;60509;47.308;-122.428;2022-11-15T11:27:16;102097.29;;;-4.36;47.83
72486;BME280;60509;47.308;-122.428;2022-11-15T11:29:38;102097.43;;;-3.21;46.44
72486;BME280;60509;47.308;-122.428;2022-11-15T11:32:01;102098.67;;;-4.06;47.47
72486;BME280;60509;47.308;-122.428;2022-11-15T11:34:33;102098.43;;;-4.16;48.25
72486;BME280;60509;47.308;-122.428;2022-11-15T11:36:51;102098.84;;;-3.42;47.11
72486;BME280;60509;47.308;-122.428;2022-11-15T11:39:25;102097.49;;;-3.20;46.70
72486;BME280;60509;47.308;-122.428;2022-11-15T11:41:45;102098.22;;;-3.21;46.78
72486;BME280;60509;47.308;-122.428;2022-11-15T11:44:11;102097.73;;;-4.38;48.10
72486;BME280;60509;47.308;-122.428;2022-11-15T11:46:44;102098.96;;;-4.71;48.93
72486;BME280;60509;47.308;-122.428;2022-11-15T11:48:56;102099.45;;;-4.25;48.15
72486;BME280;60509;47.308;-122.428;2022-11-15T11:51:23;102103.24;;;-3.85;47.08
72486;BME280;60509;47.308;-122.428;2022-11-15T11:53:48;102102.25;;;-3.84;48.02
72486;BME280;60509;47.308;-122.428;2022-11-15T11:56:17;102104.82;;;-4.46;48.43
72486;BME280;60509;47.308;-122.428;2022-11-15T11:58:37;102107.05;;;-4.44;48.41
72486;BME280;60509;47.308;-122.428;2022-11-15T12:01:11;102110.20;;;-3.46;47.32
72486;BME280;60509;47.308;-122.428;2022-11-15T12:03:33;102111.40;;;-3.57;47.22
72486;BME280;60509;47.308;-122.428;2022-11-15T12:05:56;102113.48;;;-3.87;48.20
72486;BME280;60509;47.308;-122.428;2022-11-15T12:08:31;102114.00;;;-4.24;48.12
72486;BME280;60509;47.308;-122.428;2022-11-15T12:10:47;102114.92;;;-2.88;46.35
72486;BME280;60509;47.308;-122.428;2022-11-15T12:13:13;102113.60;;;-3.56;47.40
72486;BME280;60509;47.308;-122.428;2022-11-15T12:15:39;102114.04;;;-4.46;49.06
72486;BME280;60509;47.308;-122.428;2022-11-15T12:18:01;102115.63;;;-3.85;48.40
72486;BME280;60509;47.308;-122.428;2022-11-15T12:20:28;102116.26;;;-3.06;47.57